sensor_id;sensor_type;location;lat;lon;timestamp;temperature;humidity
47616;DHT22;69146;52.266;7.000;2023-10-09T00:02:24;12.60;99.90
47616;DHT22;69146;52.266;7.000;2023-10-09T00:05:08;12.60;99.90
47616;DHT22;69146;52.266;7.000;2023-10-09T00:07:59;12.60;99.90
47616;DHT22;69146;52.266;7.000;2023-10-09T00:10:43;12.60;99.90
47616;DHT22;69146;52.266;7.000;2023-10-09T00:13:37;12.60;99.90
47616;DHT22;69146;52.266;7.000;2023-10-09T00:16:23;12.60;99.90
47616;DHT22;69146;52.266;7.000;2023-10-09T00:19:16;12.60;99.90
47616;DHT22;69146;52.266;7.000;2023-10-09T00:22:02;12.60;99.90
47616;DHT22;69146;52.266;7.000;2023-10-09T00:24:55;12.60;99.90
47616;DHT22;69146;52.266;7.000;2023-10-09T00:27:58;12.70;99.90
47616;DHT22;69146;52.266;7.000;2023-10-09T00:30:44;12.80;99.90
47616;DHT22;69146;52.266;7.000;2023-10-09T00:33:29;12.90;99.90
47616;DHT22;69146;52.266;7.000;2023-10-09T00:36:14;13.10;99.90
47616;DHT22;69146;52.266;7.000;2023-10-09T00:39:03;13.10;99.90
47616;DHT22;69146;52.266;7.000;2023-10-09T00:42:02;13.20;99.90
47616;DHT22;69146;52.266;7.000;2023-10-09T00:44:47;13.40;99.90
47616;DHT22;69146;52.266;7.000;2023-10-09T00:47:33;13.40;99.90
47616;DHT22;69146;52.266;7.000;2023-10-09T00:50:19;13.50;99.90
47616;DHT22;69146;52.266;7.000;2023-10-09T00:53:04;13.60;99.90
47616;DHT22;69146;52.266;7.000;2023-10-09T00:55:55;13.60;99.90
47616;DHT22;69146;52.266;7.000;2023-10-09T00:58:41;13.80;99.90
47616;DHT22;69146;52.266;7.000;2023-10-09T01:01:27;13.80;99.90
47616;DHT22;69146;52.266;7.000;2023-10-09T01:04:24;13.90;99.90
47616;DHT22;69146;52.266;7.000;2023-10-09T01:07:11;14.00;99.90
47616;DHT22;69146;52.266;7.000;2023-10-09T01:10:08;13.90;99.90
47616;DHT22;69146;52.266;7.000;2023-10-09T01:12:53;14.00;99.90
47616;DHT22;69146;52.266;7.000;2023-10-09T01:15:39;14.00;99.90
47616;DHT22;69146;52.266;7.000;2023-10-09T01:18:28;14.00;99.90
47616;DHT22;69146;52.266;7.000;2023-10-09T01:21:20;14.00;99.90
47616;DHT22;69146;52.266;7.000;2023-10-09T01:24:10;14.00;99.90
47616;DHT22;69146;52.266;7.000;2023-10-09T01:26:55;14.10;99.90
47616;DHT22;69146;52.266;7.000;2023-10-09T01:29:43;14.10;99.90
47616;DHT22;69146;52.266;7.000;2023-10-09T01:32:28;14.10;99.90
47616;DHT22;69146;52.266;7.000;2023-10-09T01:35:13;14.20;99.90
47616;DHT22;69146;52.266;7.000;2023-10-09T01:38:07;14.30;99.90
47616;DHT22;69146;52.266;7.000;2023-10-09T01:41:00;14.30;99.90
47616;DHT22;69146;52.266;7.000;2023-10-09T01:43:51;14.20;99.90
47616;DHT22;69146;52.266;7.000;2023-10-09T01:46:39;14.30;99.90
47616;DHT22;69146;52.266;7.000;2023-10-09T01:49:24;14.30;99.90
47616;DHT22;69146;52.266;7.000;2023-10-09T01:52:14;14.30;99.90
47616;DHT22;69146;52.266;7.000;2023-10-09T01:55:02;14.30;99.90
47616;DHT22;69146;52.266;7.000;2023-10-09T01:58:08;14.30;99.90
47616;DHT22;69146;52.266;7.000;2023-10-09T02:01:08;14.30;99.90
47616;DHT22;69146;52.266;7.000;2023-10-09T02:03:53;14.20;99.90
47616;DHT22;69146;52.266;7.000;2023-10-09T02:06:38;14.20;99.90
47616;DHT22;69146;52.266;7.000;2023-10-09T02:09:23;14.30;99.90
47616;DHT22;69146;52.266;7.000;2023-10-09T02:12:15;14.30;99.90
47616;DHT22;69146;52.266;7.000;2023-10-09T02:15:01;14.30;99.90
47616;DHT22;69146;52.266;7.000;2023-10-09T02:17:51;14.30;99.90
47616;DHT22;69146;52.266;7.000;2023-10-09T02:20:45;14.40;99.90
47616;DHT22;69146;52.266;7.000;2023-10-09T02:23:30;14.30;99.90
47616;DHT22;69146;52.266;7.000;2023-10-09T02:26:33;14.40;99.90
47616;DHT22;69146;52.266;7.000;2023-10-09T02:29:23;14.40;99.90
47616;DHT22;69146;52.266;7.000;2023-10-09T02:32:09;14.40;99.90
47616;DHT22;69146;52.266;7.000;2023-10-09T02:35:10;14.40;99.90
47616;DHT22;69146;52.266;7.000;2023-10-09T02:38:05;14.50;99.90
47616;DHT22;69146;52.266;7.000;2023-10-09T02:40:53;14.50;99.90
47616;DHT22;69146;52.266;7.000;2023-10-09T02:43:47;14.40;99.90
47616;DHT22;69146;52.266;7.000;2023-10-09T02:46:32;14.50;99.90
47616;DHT22;69146;52.266;7.000;2023-10-09T02:49:20;14.50;99.90
47616;DHT22;69146;52.266;7.000;2023-10-09T02:52:05;14.50;99.90
47616;DHT22;69146;52.266;7.000;2023-10-09T02:54:52;14.60;99.90
47616;DHT22;69146;52.266;7.000;2023-10-09T02:57:43;14.60;99.90
47616;DHT22;69146;52.266;7.000;2023-10-09T03:00:29;14.60;99.90
47616;DHT22;69146;52.266;7.000;2023-10-09T03:03:17;14.50;99.90
47616;DHT22;69146;52.266;7.000;2023-10-09T03:06:04;14.60;99.90
47616;DHT22;69146;52.266;7.000;2023-10-09T03:08:55;14.60;99.90
47616;DHT22;69146;52.266;7.000;2023-10-09T03:11:40;14.60;99.90
47616;DHT22;69146;52.266;7.000;2023-10-09T03:14:26;14.60;99.90
47616;DHT22;69146;52.266;7.000;2023-10-09T03:17:12;14.60;99.90
47616;DHT22;69146;52.266;7.000;2023-10-09T03:19:57;14.60;99.90
47616;DHT22;69146;52.266;7.000;2023-10-09T03:22:45;14.50;99.90
47616;DHT22;69146;52.266;7.000;2023-10-09T03:25:30;14.60;99.90
47616;DHT22;69146;52.266;7.000;2023-10-09T03:28:14;14.60;99.90
47616;DHT22;69146;52.266;7.000;2023-10-09T03:30:59;14.70;99.90
47616;DHT22;69146;52.266;7.000;2023-10-09T03:33:47;14.70;99.90
47616;DHT22;69146;52.266;7.000;2023-10-09T03:36:31;14.70;99.90
47616;DHT22;69146;52.266;7.000;2023-10-09T03:39:23;14.80;99.90
47616;DHT22;69146;52.266;7.000;2023-10-09T03:42:19;14.80;99.90
47616;DHT22;69146;52.266;7.000;2023-10-09T03:45:05;14.80;99.90
47616;DHT22;69146;52.266;7.000;2023-10-09T03:48:02;14.80;99.90
47616;DHT22;69146;52.266;7.000;2023-10-09T03:50:53;14.70;99.90
47616;DHT22;69146;52.266;7.000;2023-10-09T03:53:52;14.80;99.90
47616;DHT22;69146;52.266;7.000;2023-10-09T03:56:38;14.80;99.90
47616;DHT22;69146;52.266;7.000;2023-10-09T03:59:23;14.80;99.90
47616;DHT22;69146;52.266;7.000;2023-10-09T04:02:14;14.90;99.90
47616;DHT22;69146;52.266;7.000;2023-10-09T04:04:59;14.80;99.90
47616;DHT22;69146;52.266;7.000;2023-10-09T04:07:45;14.90;99.90
47616;DHT22;69146;52.266;7.000;2023-10-09T04:10:30;14.90;99.90
47616;DHT22;69146;52.266;7.000;2023-10-09T04:13:28;14.90;99.90
47616;DHT22;69146;52.266;7.000;2023-10-09T04:16:19;15.00;99.90
47616;DHT22;69146;52.266;7.000;2023-10-09T04:19:18;15.00;99.90
47616;DHT22;69146;52.266;7.000;2023-10-09T04:22:06;15.10;99.90
47616;DHT22;69146;52.266;7.000;2023-10-09T04:25:09;15.00;99.90
47616;DHT22;69146;52.266;7.000;2023-10-09T04:28:04;15.00;99.90
47616;DHT22;69146;52.266;7.000;2023-10-09T04:31:07;15.10;99.90
47616;DHT22;69146;52.266;7.000;2023-10-09T04:33:51;15.10;99.90
47616;DHT22;69146;52.266;7.000;2023-10-09T04:36:58;15.10;99.90
47616;DHT22;69146;52.266;7.000;2023-10-09T04:39:52;15.20;99.90
47616;DHT22;69146;52.266;7.000;2023-10-09T04:43:00;15.20;99.90
47616;DHT22;69146;52.266;7.000;2023-10-09T04:45:49;15.20;99.90
47616;DHT22;69146;52.266;7.000;2023-10-09T04:48:47;15.20;99.90
47616;DHT22;69146;52.266;7.000;2023-10-09T04:51:32;15.20;99.90
47616;DHT22;69146;52.266;7.000;2023-10-09T04:54:20;15.20;99.90
47616;DHT22;69146;52.266;7.000;2023-10-09T04:57:23;15.10;99.90
47616;DHT22;69146;52.266;7.000;2023-10-09T05:00:10;15.10;99.90
47616;DHT22;69146;52.266;7.000;2023-10-09T05:03:07;15.00;99.90
47616;DHT22;69146;52.266;7.000;2023-10-09T05:05:56;15.00;99.90
47616;DHT22;69146;52.266;7.000;2023-10-09T05:08:44;15.00;99.90
47616;DHT22;69146;52.266;7.000;2023-10-09T05:11:30;15.00;99.90
47616;DHT22;69146;52.266;7.000;2023-10-09T05:14:33;15.00;99.90
47616;DHT22;69146;52.266;7.000;2023-10-09T05:17:29;14.90;99.90
47616;DHT22;69146;52.266;7.000;2023-10-09T05:20:18;14.80;99.90
47616;DHT22;69146;52.266;7.000;2023-10-09T05:23:13;14.90;99.90
47616;DHT22;69146;52.266;7.000;2023-10-09T05:26:13;14.90;99.90
47616;DHT22;69146;52.266;7.000;2023-10-09T05:29:17;14.80;99.90
47616;DHT22;69146;52.266;7.000;2023-10-09T05:32:16;14.80;99.90
47616;DHT22;69146;52.266;7.000;2023-10-09T05:35:12;14.80;99.90
47616;DHT22;69146;52.266;7.000;2023-10-09T05:38:00;14.80;99.90
47616;DHT22;69146;52.266;7.000;2023-10-09T05:41:00;14.80;99.90
47616;DHT22;69146;52.266;7.000;2023-10-09T05:44:04;14.80;99.90
47616;DHT22;69146;52.266;7.000;2023-10-09T05:47:08;14.80;99.90
47616;DHT22;69146;52.266;7.000;2023-10-09T05:50:11;14.80;99.90
47616;DHT22;69146;52.266;7.000;2023-10-09T05:52:58;14.90;99.90
47616;DHT22;69146;52.266;7.000;2023-10-09T05:55:46;14.80;99.90
47616;DHT22;69146;52.266;7.000;2023-10-09T05:58:51;14.90;99.90
47616;DHT22;69146;52.266;7.000;2023-10-09T06:01:50;14.90;99.90
47616;DHT22;69146;52.266;7.000;2023-10-09T06:04:35;14.90;99.90
47616;DHT22;69146;52.266;7.000;2023-10-09T06:07:48;14.80;99.90
47616;DHT22;69146;52.266;7.000;2023-10-09T06:10:50;14.80;99.90
47616;DHT22;69146;52.266;7.000;2023-10-09T06:13:51;14.90;99.90
47616;DHT22;69146;52.266;7.000;2023-10-09T06:16:46;14.80;99.90
47616;DHT22;69146;52.266;7.000;2023-10-09T06:19:50;14.90;99.90
47616;DHT22;69146;52.266;7.000;2023-10-09T06:22:42;14.80;99.90
47616;DHT22;69146;52.266;7.000;2023-10-09T06:25:42;14.90;99.90
47616;DHT22;69146;52.266;7.000;2023-10-09T06:28:35;14.90;99.90
47616;DHT22;69146;52.266;7.000;2023-10-09T06:31:21;14.90;99.90
47616;DHT22;69146;52.266;7.000;2023-10-09T06:34:34;14.90;99.90
47616;DHT22;69146;52.266;7.000;2023-10-09T06:37:19;14.90;99.90
47616;DHT22;69146;52.266;7.000;2023-10-09T06:40:08;14.90;99.90
47616;DHT22;69146;52.266;7.000;2023-10-09T06:42:55;15.00;99.90
47616;DHT22;69146;52.266;7.000;2023-10-09T06:45:40;15.00;99.90
47616;DHT22;69146;52.266;7.000;2023-10-09T06:48:39;15.00;99.90
47616;DHT22;69146;52.266;7.000;2023-10-09T06:51:24;15.00;99.90
47616;DHT22;69146;52.266;7.000;2023-10-09T06:54:08;15.10;99.90
47616;DHT22;69146;52.266;7.000;2023-10-09T06:56:59;15.10;99.90
47616;DHT22;69146;52.266;7.000;2023-10-09T07:00:03;15.10;99.90
47616;DHT22;69146;52.266;7.000;2023-10-09T07:03:19;15.10;99.90
47616;DHT22;69146;52.266;7.000;2023-10-09T07:06:05;15.20;99.90
47616;DHT22;69146;52.266;7.000;2023-10-09T07:08:54;15.20;99.90
47616;DHT22;69146;52.266;7.000;2023-10-09T07:11:51;15.20;99.90
47616;DHT22;69146;52.266;7.000;2023-10-09T07:14:36;15.20;99.90
47616;DHT22;69146;52.266;7.000;2023-10-09T07:17:20;15.30;99.90
47616;DHT22;69146;52.266;7.000;2023-10-09T07:20:05;15.30;99.90
47616;DHT22;69146;52.266;7.000;2023-10-09T07:22:57;15.30;99.90
47616;DHT22;69146;52.266;7.000;2023-10-09T07:26:04;15.30;99.90
47616;DHT22;69146;52.266;7.000;2023-10-09T07:29:09;15.40;99.90
47616;DHT22;69146;52.266;7.000;2023-10-09T07:32:06;15.40;99.90
47616;DHT22;69146;52.266;7.000;2023-10-09T07:34:56;15.40;99.90
47616;DHT22;69146;52.266;7.000;2023-10-09T07:37:44;15.50;99.90
47616;DHT22;69146;52.266;7.000;2023-10-09T07:40:36;15.50;99.90
47616;DHT22;69146;52.266;7.000;2023-10-09T07:43:39;15.50;99.90
47616;DHT22;69146;52.266;7.000;2023-10-09T07:46:23;15.50;99.90
47616;DHT22;69146;52.266;7.000;2023-10-09T07:49:17;15.50;99.90
47616;DHT22;69146;52.266;7.000;2023-10-09T07:52:09;15.50;99.90
47616;DHT22;69146;52.266;7.000;2023-10-09T07:54:53;15.50;99.90
47616;DHT22;69146;52.266;7.000;2023-10-09T07:57:47;15.60;99.90
47616;DHT22;69146;52.266;7.000;2023-10-09T08:00:36;15.50;99.90
47616;DHT22;69146;52.266;7.000;2023-10-09T08:03:20;15.50;99.90
47616;DHT22;69146;52.266;7.000;2023-10-09T08:06:08;15.60;99.90
47616;DHT22;69146;52.266;7.000;2023-10-09T08:09:11;15.60;99.90
47616;DHT22;69146;52.266;7.000;2023-10-09T08:11:59;15.60;99.90
47616;DHT22;69146;52.266;7.000;2023-10-09T08:15:00;15.70;99.90
47616;DHT22;69146;52.266;7.000;2023-10-09T08:18:03;15.70;99.90
47616;DHT22;69146;52.266;7.000;2023-10-09T08:20:54;15.80;99.90
47616;DHT22;69146;52.266;7.000;2023-10-09T08:23:41;15.80;99.90
47616;DHT22;69146;52.266;7.000;2023-10-09T08:26:36;15.80;99.90
47616;DHT22;69146;52.266;7.000;2023-10-09T08:29:31;15.80;99.90
47616;DHT22;69146;52.266;7.000;2023-10-09T08:32:20;15.80;99.90
47616;DHT22;69146;52.266;7.000;2023-10-09T08:35:22;15.80;99.90
47616;DHT22;69146;52.266;7.000;2023-10-09T08:38:39;15.80;99.90
47616;DHT22;69146;52.266;7.000;2023-10-09T08:41:26;15.80;99.90
47616;DHT22;69146;52.266;7.000;2023-10-09T08:44:14;15.80;99.90
47616;DHT22;69146;52.266;7.000;2023-10-09T08:46:59;15.80;99.90
47616;DHT22;69146;52.266;7.000;2023-10-09T08:49:45;15.80;99.90
47616;DHT22;69146;52.266;7.000;2023-10-09T08:52:30;15.90;99.90
47616;DHT22;69146;52.266;7.000;2023-10-09T08:55:16;16.00;99.90
47616;DHT22;69146;52.266;7.000;2023-10-09T08:58:01;16.10;99.90
47616;DHT22;69146;52.266;7.000;2023-10-09T09:00:45;16.10;99.90
47616;DHT22;69146;52.266;7.000;2023-10-09T09:03:37;16.10;99.90
47616;DHT22;69146;52.266;7.000;2023-10-09T09:06:23;16.20;99.90
47616;DHT22;69146;52.266;7.000;2023-10-09T09:09:12;16.20;99.90
47616;DHT22;69146;52.266;7.000;2023-10-09T09:12:00;16.20;99.90
47616;DHT22;69146;52.266;7.000;2023-10-09T09:14:44;16.30;99.90
47616;DHT22;69146;52.266;7.000;2023-10-09T09:17:29;16.30;99.90
47616;DHT22;69146;52.266;7.000;2023-10-09T09:20:19;16.40;99.90
47616;DHT22;69146;52.266;7.000;2023-10-09T09:23:10;16.50;99.90
47616;DHT22;69146;52.266;7.000;2023-10-09T09:25:56;16.50;99.90
47616;DHT22;69146;52.266;7.000;2023-10-09T09:28:51;16.40;99.90
47616;DHT22;69146;52.266;7.000;2023-10-09T09:31:48;16.40;99.90
47616;DHT22;69146;52.266;7.000;2023-10-09T09:34:41;16.50;99.90
47616;DHT22;69146;52.266;7.000;2023-10-09T09:37:29;16.50;99.90
47616;DHT22;69146;52.266;7.000;2023-10-09T09:40:17;16.50;99.90
47616;DHT22;69146;52.266;7.000;2023-10-09T09:43:15;16.50;99.90
47616;DHT22;69146;52.266;7.000;2023-10-09T09:46:06;16.50;99.90
47616;DHT22;69146;52.266;7.000;2023-10-09T09:48:52;16.50;99.90
47616;DHT22;69146;52.266;7.000;2023-10-09T09:51:38;16.60;99.90
47616;DHT22;69146;52.266;7.000;2023-10-09T09:54:22;16.60;99.90
47616;DHT22;69146;52.266;7.000;2023-10-09T09:57:10;16.70;99.90
47616;DHT22;69146;52.266;7.000;2023-10-09T09:59:57;16.60;99.90
47616;DHT22;69146;52.266;7.000;2023-10-09T10:02:42;16.70;99.90
47616;DHT22;69146;52.266;7.000;2023-10-09T10:05:28;16.80;99.90
47616;DHT22;69146;52.266;7.000;2023-10-09T10:08:15;16.90;99.90
47616;DHT22;69146;52.266;7.000;2023-10-09T10:11:03;16.90;99.90
47616;DHT22;69146;52.266;7.000;2023-10-09T10:13:59;17.00;99.90
47616;DHT22;69146;52.266;7.000;2023-10-09T10:17:02;17.10;99.90
47616;DHT22;69146;52.266;7.000;2023-10-09T10:20:00;17.20;99.90
47616;DHT22;69146;52.266;7.000;2023-10-09T10:23:17;17.30;99.90
47616;DHT22;69146;52.266;7.000;2023-10-09T10:26:15;17.30;99.90
47616;DHT22;69146;52.266;7.000;2023-10-09T10:29:17;17.40;99.90
47616;DHT22;69146;52.266;7.000;2023-10-09T10:32:10;17.40;99.90
47616;DHT22;69146;52.266;7.000;2023-10-09T10:34:55;17.50;99.90
47616;DHT22;69146;52.266;7.000;2023-10-09T10:37:40;17.50;99.90
47616;DHT22;69146;52.266;7.000;2023-10-09T10:40:44;17.60;99.90
47616;DHT22;69146;52.266;7.000;2023-10-09T10:43:41;17.60;99.90
47616;DHT22;69146;52.266;7.000;2023-10-09T10:46:33;17.70;99.90
47616;DHT22;69146;52.266;7.000;2023-10-09T10:49:27;17.70;99.90
47616;DHT22;69146;52.266;7.000;2023-10-09T10:52:21;17.70;99.90
47616;DHT22;69146;52.266;7.000;2023-10-09T10:55:09;17.70;99.90
47616;DHT22;69146;52.266;7.000;2023-10-09T10:58:02;17.70;99.90
47616;DHT22;69146;52.266;7.000;2023-10-09T11:00:54;17.70;99.90
47616;DHT22;69146;52.266;7.000;2023-10-09T11:03:43;17.70;99.90
47616;DHT22;69146;52.266;7.000;2023-10-09T11:06:39;17.70;99.90
47616;DHT22;69146;52.266;7.000;2023-10-09T11:09:26;17.80;99.90
47616;DHT22;69146;52.266;7.000;2023-10-09T11:12:19;17.80;99.90
47616;DHT22;69146;52.266;7.000;2023-10-09T11:15:07;17.80;99.90
47616;DHT22;69146;52.266;7.000;2023-10-09T11:18:08;17.90;99.90
47616;DHT22;69146;52.266;7.000;2023-10-09T11:20:54;17.90;99.90
47616;DHT22;69146;52.266;7.000;2023-10-09T11:23:59;17.90;99.90
47616;DHT22;69146;52.266;7.000;2023-10-09T11:27:03;17.90;99.90
47616;DHT22;69146;52.266;7.000;2023-10-09T11:29:50;17.90;99.90
47616;DHT22;69146;52.266;7.000;2023-10-09T11:32:35;18.00;99.90
47616;DHT22;69146;52.266;7.000;2023-10-09T11:35:21;18.00;99.90
47616;DHT22;69146;52.266;7.000;2023-10-09T11:38:20;18.00;99.90
47616;DHT22;69146;52.266;7.000;2023-10-09T11:41:11;18.00;99.90
47616;DHT22;69146;52.266;7.000;2023-10-09T11:44:03;18.10;99.90
47616;DHT22;69146;52.266;7.000;2023-10-09T11:46:56;18.20;99.90
47616;DHT22;69146;52.266;7.000;2023-10-09T11:49:46;18.40;99.90
47616;DHT22;69146;52.266;7.000;2023-10-09T11:52:34;18.50;99.90
47616;DHT22;69146;52.266;7.000;2023-10-09T11:55:23;18.60;99.90
47616;DHT22;69146;52.266;7.000;2023-10-09T11:58:09;18.60;99.90
47616;DHT22;69146;52.266;7.000;2023-10-09T12:00:53;18.60;99.90
47616;DHT22;69146;52.266;7.000;2023-10-09T12:03:41;18.60;99.90
47616;DHT22;69146;52.266;7.000;2023-10-09T12:06:27;18.50;99.90
47616;DHT22;69146;52.266;7.000;2023-10-09T12:09:16;18.50;99.90
47616;DHT22;69146;52.266;7.000;2023-10-09T12:12:08;18.60;99.90
47616;DHT22;69146;52.266;7.000;2023-10-09T12:14:53;18.70;99.90
47616;DHT22;69146;52.266;7.000;2023-10-09T12:17:38;18.80;99.90
47616;DHT22;69146;52.266;7.000;2023-10-09T12:20:28;18.80;99.90
47616;DHT22;69146;52.266;7.000;2023-10-09T12:23:16;18.80;99.90
47616;DHT22;69146;52.266;7.000;2023-10-09T12:26:01;18.80;99.90
47616;DHT22;69146;52.266;7.000;2023-10-09T12:28:47;18.80;99.90
47616;DHT22;69146;52.266;7.000;2023-10-09T12:31:36;18.70;99.90
47616;DHT22;69146;52.266;7.000;2023-10-09T12:34:23;18.60;99.90
47616;DHT22;69146;52.266;7.000;2023-10-09T12:37:10;18.60;99.90
47616;DHT22;69146;52.266;7.000;2023-10-09T12:39:56;18.50;99.90
47616;DHT22;69146;52.266;7.000;2023-10-09T12:42:41;18.50;99.90
47616;DHT22;69146;52.266;7.000;2023-10-09T12:45:27;18.50;99.90
47616;DHT22;69146;52.266;7.000;2023-10-09T12:48:16;18.50;99.90
47616;DHT22;69146;52.266;7.000;2023-10-09T12:51:01;18.60;99.90
47616;DHT22;69146;52.266;7.000;2023-10-09T12:53:50;18.60;99.90
47616;DHT22;69146;52.266;7.000;2023-10-09T12:56:41;18.60;99.90
47616;DHT22;69146;52.266;7.000;2023-10-09T12:59:25;18.60;99.90
47616;DHT22;69146;52.266;7.000;2023-10-09T13:02:11;18.50;99.90
47616;DHT22;69146;52.266;7.000;2023-10-09T13:04:55;18.60;99.90
47616;DHT22;69146;52.266;7.000;2023-10-09T13:07:40;18.50;99.90
47616;DHT22;69146;52.266;7.000;2023-10-09T13:10:24;18.60;99.90
47616;DHT22;69146;52.266;7.000;2023-10-09T13:13:11;18.70;99.90
47616;DHT22;69146;52.266;7.000;2023-10-09T13:15:56;18.80;99.90
47616;DHT22;69146;52.266;7.000;2023-10-09T13:18:43;18.90;99.90
47616;DHT22;69146;52.266;7.000;2023-10-09T13:21:34;19.10;99.90
47616;DHT22;69146;52.266;7.000;2023-10-09T13:24:19;19.30;99.90
47616;DHT22;69146;52.266;7.000;2023-10-09T13:27:08;19.40;99.90
47616;DHT22;69146;52.266;7.000;2023-10-09T13:29:54;19.30;99.90
47616;DHT22;69146;52.266;7.000;2023-10-09T13:32:49;19.30;99.90
47616;DHT22;69146;52.266;7.000;2023-10-09T13:35:37;19.20;99.90
47616;DHT22;69146;52.266;7.000;2023-10-09T13:38:32;19.20;99.90
47616;DHT22;69146;52.266;7.000;2023-10-09T13:41:16;19.20;99.90
47616;DHT22;69146;52.266;7.000;2023-10-09T13:44:01;19.10;99.90
47616;DHT22;69146;52.266;7.000;2023-10-09T13:46:47;19.10;99.90
47616;DHT22;69146;52.266;7.000;2023-10-09T13:49:34;19.10;99.90
47616;DHT22;69146;52.266;7.000;2023-10-09T13:52:23;19.10;99.90
47616;DHT22;69146;52.266;7.000;2023-10-09T13:55:08;19.10;99.90
47616;DHT22;69146;52.266;7.000;2023-10-09T13:58:01;19.00;99.90
47616;DHT22;69146;52.266;7.000;2023-10-09T14:00:46;19.10;99.90
47616;DHT22;69146;52.266;7.000;2023-10-09T14:03:34;19.20;99.90
47616;DHT22;69146;52.266;7.000;2023-10-09T14:06:19;19.30;99.90
47616;DHT22;69146;52.266;7.000;2023-10-09T14:09:16;19.40;99.90
47616;DHT22;69146;52.266;7.000;2023-10-09T14:12:14;19.60;99.90
47616;DHT22;69146;52.266;7.000;2023-10-09T14:15:03;19.70;99.90
47616;DHT22;69146;52.266;7.000;2023-10-09T14:17:48;19.70;99.90
47616;DHT22;69146;52.266;7.000;2023-10-09T14:20:39;19.50;99.90
47616;DHT22;69146;52.266;7.000;2023-10-09T14:23:25;19.50;99.90
47616;DHT22;69146;52.266;7.000;2023-10-09T14:26:17;19.30;99.90
47616;DHT22;69146;52.266;7.000;2023-10-09T14:29:02;19.20;99.90
47616;DHT22;69146;52.266;7.000;2023-10-09T14:31:51;19.20;99.90
47616;DHT22;69146;52.266;7.000;2023-10-09T14:34:44;19.20;99.90
47616;DHT22;69146;52.266;7.000;2023-10-09T14:37:34;19.10;99.90
47616;DHT22;69146;52.266;7.000;2023-10-09T14:40:19;19.00;99.90
47616;DHT22;69146;52.266;7.000;2023-10-09T14:43:15;18.90;99.90
47616;DHT22;69146;52.266;7.000;2023-10-09T14:46:12;18.90;99.90
47616;DHT22;69146;52.266;7.000;2023-10-09T14:48:57;18.90;99.90
47616;DHT22;69146;52.266;7.000;2023-10-09T14:51:43;18.90;99.90
47616;DHT22;69146;52.266;7.000;2023-10-09T14:54:28;18.90;99.90
47616;DHT22;69146;52.266;7.000;2023-10-09T14:57:13;18.80;99.90
47616;DHT22;69146;52.266;7.000;2023-10-09T14:59:59;18.70;99.90
47616;DHT22;69146;52.266;7.000;2023-10-09T15:02:43;18.70;99.90
47616;DHT22;69146;52.266;7.000;2023-10-09T15:05:29;18.70;99.90
47616;DHT22;69146;52.266;7.000;2023-10-09T15:08:18;18.60;99.90
47616;DHT22;69146;52.266;7.000;2023-10-09T15:11:03;18.60;99.90
47616;DHT22;69146;52.266;7.000;2023-10-09T15:13:47;18.60;99.90
47616;DHT22;69146;52.266;7.000;2023-10-09T15:16:33;18.70;99.90
47616;DHT22;69146;52.266;7.000;2023-10-09T15:19:17;18.70;99.90
47616;DHT22;69146;52.266;7.000;2023-10-09T15:22:02;18.70;99.90
47616;DHT22;69146;52.266;7.000;2023-10-09T15:24:52;18.70;99.90
47616;DHT22;69146;52.266;7.000;2023-10-09T15:27:38;18.70;99.90
47616;DHT22;69146;52.266;7.000;2023-10-09T15:30:23;18.60;99.90
47616;DHT22;69146;52.266;7.000;2023-10-09T15:33:09;18.70;99.90
47616;DHT22;69146;52.266;7.000;2023-10-09T15:35:55;18.60;99.90
47616;DHT22;69146;52.266;7.000;2023-10-09T15:38:40;18.70;99.90
47616;DHT22;69146;52.266;7.000;2023-10-09T15:41:26;18.60;99.90
47616;DHT22;69146;52.266;7.000;2023-10-09T15:44:13;18.50;99.90
47616;DHT22;69146;52.266;7.000;2023-10-09T15:46:58;18.50;99.90
47616;DHT22;69146;52.266;7.000;2023-10-09T15:49:45;18.50;99.90
47616;DHT22;69146;52.266;7.000;2023-10-09T15:52:29;18.40;99.90
47616;DHT22;69146;52.266;7.000;2023-10-09T15:55:14;18.40;99.90
47616;DHT22;69146;52.266;7.000;2023-10-09T15:57:58;18.40;99.90
47616;DHT22;69146;52.266;7.000;2023-10-09T16:00:43;18.40;99.90
47616;DHT22;69146;52.266;7.000;2023-10-09T16:03:27;18.30;99.90
47616;DHT22;69146;52.266;7.000;2023-10-09T16:06:13;18.30;99.90
47616;DHT22;69146;52.266;7.000;2023-10-09T16:08:59;18.30;99.90
47616;DHT22;69146;52.266;7.000;2023-10-09T16:11:44;18.30;99.90
47616;DHT22;69146;52.266;7.000;2023-10-09T16:14:28;18.30;99.90
47616;DHT22;69146;52.266;7.000;2023-10-09T16:17:13;18.30;99.90
47616;DHT22;69146;52.266;7.000;2023-10-09T16:20:00;18.20;99.90
47616;DHT22;69146;52.266;7.000;2023-10-09T16:22:46;18.30;99.90
47616;DHT22;69146;52.266;7.000;2023-10-09T16:25:30;18.20;99.90
47616;DHT22;69146;52.266;7.000;2023-10-09T16:28:15;18.10;99.90
47616;DHT22;69146;52.266;7.000;2023-10-09T16:30:59;18.10;99.90
47616;DHT22;69146;52.266;7.000;2023-10-09T16:33:44;18.10;99.90
47616;DHT22;69146;52.266;7.000;2023-10-09T16:36:29;18.00;99.90
47616;DHT22;69146;52.266;7.000;2023-10-09T16:39:16;18.00;99.90
47616;DHT22;69146;52.266;7.000;2023-10-09T16:42:05;18.00;99.90
47616;DHT22;69146;52.266;7.000;2023-10-09T16:44:49;17.90;99.90
47616;DHT22;69146;52.266;7.000;2023-10-09T16:47:34;17.90;99.90
47616;DHT22;69146;52.266;7.000;2023-10-09T16:50:20;17.90;99.90
47616;DHT22;69146;52.266;7.000;2023-10-09T16:53:12;18.00;99.90
47616;DHT22;69146;52.266;7.000;2023-10-09T16:55:57;18.00;99.90
47616;DHT22;69146;52.266;7.000;2023-10-09T16:58:44;18.00;99.90
47616;DHT22;69146;52.266;7.000;2023-10-09T17:01:29;18.00;99.90
47616;DHT22;69146;52.266;7.000;2023-10-09T17:04:15;18.00;99.90
47616;DHT22;69146;52.266;7.000;2023-10-09T17:07:07;18.00;99.90
47616;DHT22;69146;52.266;7.000;2023-10-09T17:09:58;17.90;99.90
47616;DHT22;69146;52.266;7.000;2023-10-09T17:12:44;17.90;99.90
47616;DHT22;69146;52.266;7.000;2023-10-09T17:15:33;17.90;99.90
47616;DHT22;69146;52.266;7.000;2023-10-09T17:18:17;17.90;99.90
47616;DHT22;69146;52.266;7.000;2023-10-09T17:21:02;17.90;99.90
47616;DHT22;69146;52.266;7.000;2023-10-09T17:23:47;17.90;99.90
47616;DHT22;69146;52.266;7.000;2023-10-09T17:26:32;17.80;99.90
47616;DHT22;69146;52.266;7.000;2023-10-09T17:29:19;17.80;99.90
47616;DHT22;69146;52.266;7.000;2023-10-09T17:32:06;17.70;99.90
47616;DHT22;69146;52.266;7.000;2023-10-09T17:34:50;17.70;99.90
47616;DHT22;69146;52.266;7.000;2023-10-09T17:37:37;17.70;99.90
47616;DHT22;69146;52.266;7.000;2023-10-09T17:40:23;17.60;99.90
47616;DHT22;69146;52.266;7.000;2023-10-09T17:43:10;17.70;99.90
47616;DHT22;69146;52.266;7.000;2023-10-09T17:45:56;17.60;99.90
47616;DHT22;69146;52.266;7.000;2023-10-09T17:48:40;17.60;99.90
47616;DHT22;69146;52.266;7.000;2023-10-09T17:51:26;17.70;99.90
47616;DHT22;69146;52.266;7.000;2023-10-09T17:54:11;17.70;99.90